sensor_id;sensor_type;location;lat;lon;timestamp;P1;durP1;ratioP1;P2;durP2;ratioP2
52858;SDS011;38721;53.098;6.596;2023-08-01T00:01:34;7.85;;;2.83;;
52858;SDS011;38721;53.098;6.596;2023-08-01T00:04:00;6.63;;;2.50;;
52858;SDS011;38721;53.098;6.596;2023-08-01T00:06:29;10.55;;;3.42;;
52858;SDS011;38721;53.098;6.596;2023-08-01T00:08:54;6.72;;;2.85;;
52858;SDS011;38721;53.098;6.596;2023-08-01T00:11:20;6.88;;;2.95;;
52858;SDS011;38721;53.098;6.596;2023-08-01T00:13:46;9.70;;;2.95;;
52858;SDS011;38721;53.098;6.596;2023-08-01T00:16:11;11.15;;;3.53;;
52858;SDS011;38721;53.098;6.596;2023-08-01T00:18:37;8.85;;;3.40;;
52858;SDS011;38721;53.098;6.596;2023-08-01T00:21:03;7.03;;;3.45;;
52858;SDS011;38721;53.098;6.596;2023-08-01T00:23:31;8.30;;;3.38;;
52858;SDS011;38721;53.098;6.596;2023-08-01T00:25:56;9.20;;;3.67;;
52858;SDS011;38721;53.098;6.596;2023-08-01T00:28:22;8.23;;;3.08;;
52858;SDS011;38721;53.098;6.596;2023-08-01T00:30:48;8.32;;;3.58;;
52858;SDS011;38721;53.098;6.596;2023-08-01T00:33:13;8.23;;;3.53;;
52858;SDS011;38721;53.098;6.596;2023-08-01T00:35:40;5.18;;;3.20;;
52858;SDS011;38721;53.098;6.596;2023-08-01T00:38:06;7.07;;;3.30;;
52858;SDS011;38721;53.098;6.596;2023-08-01T00:40:32;10.23;;;3.72;;
52858;SDS011;38721;53.098;6.596;2023-08-01T00:43:01;8.57;;;3.03;;
52858;SDS011;38721;53.098;6.596;2023-08-01T00:45:26;9.82;;;2.97;;
52858;SDS011;38721;53.098;6.596;2023-08-01T00:47:54;5.78;;;3.45;;
52858;SDS011;38721;53.098;6.596;2023-08-01T00:50:20;9.48;;;3.67;;
52858;SDS011;38721;53.098;6.596;2023-08-01T00:52:47;6.80;;;3.47;;
52858;SDS011;38721;53.098;6.596;2023-08-01T00:55:15;8.57;;;3.13;;
52858;SDS011;38721;53.098;6.596;2023-08-01T00:57:41;10.05;;;3.35;;
52858;SDS011;38721;53.098;6.596;2023-08-01T01:00:07;5.35;;;3.28;;
52858;SDS011;38721;53.098;6.596;2023-08-01T01:02:34;9.30;;;3.88;;
52858;SDS011;38721;53.098;6.596;2023-08-01T01:05:00;5.70;;;3.28;;
52858;SDS011;38721;53.098;6.596;2023-08-01T01:07:29;7.57;;;3.30;;
52858;SDS011;38721;53.098;6.596;2023-08-01T01:09:57;7.05;;;3.67;;
52858;SDS011;38721;53.098;6.596;2023-08-01T01:12:23;5.78;;;2.90;;
52858;SDS011;38721;53.098;6.596;2023-08-01T01:14:49;10.25;;;3.67;;
52858;SDS011;38721;53.098;6.596;2023-08-01T01:17:15;7.38;;;3.58;;
52858;SDS011;38721;53.098;6.596;2023-08-01T01:19:40;7.30;;;2.88;;
52858;SDS011;38721;53.098;6.596;2023-08-01T01:22:06;6.80;;;3.42;;
52858;SDS011;38721;53.098;6.596;2023-08-01T01:24:35;8.38;;;3.83;;
52858;SDS011;38721;53.098;6.596;2023-08-01T01:27:02;5.65;;;2.78;;
52858;SDS011;38721;53.098;6.596;2023-08-01T01:29:29;5.70;;;3.53;;
52858;SDS011;38721;53.098;6.596;2023-08-01T01:31:57;6.80;;;2.95;;
52858;SDS011;38721;53.098;6.596;2023-08-01T01:34:26;8.02;;;3.08;;
52858;SDS011;38721;53.098;6.596;2023-08-01T01:36:55;7.53;;;3.30;;
52858;SDS011;38721;53.098;6.596;2023-08-01T01:39:20;6.75;;;3.42;;
52858;SDS011;38721;53.098;6.596;2023-08-01T01:41:46;6.97;;;3.40;;
52858;SDS011;38721;53.098;6.596;2023-08-01T01:44:11;11.20;;;3.45;;
52858;SDS011;38721;53.098;6.596;2023-08-01T01:46:37;6.78;;;3.08;;
52858;SDS011;38721;53.098;6.596;2023-08-01T01:49:03;5.30;;;2.95;;
52858;SDS011;38721;53.098;6.596;2023-08-01T01:51:31;8.57;;;3.08;;
52858;SDS011;38721;53.098;6.596;2023-08-01T01:53:57;6.82;;;2.67;;
52858;SDS011;38721;53.098;6.596;2023-08-01T01:56:23;7.13;;;2.90;;
52858;SDS011;38721;53.098;6.596;2023-08-01T01:58:48;4.60;;;3.03;;
52858;SDS011;38721;53.098;6.596;2023-08-01T02:01:14;7.03;;;3.00;;
52858;SDS011;38721;53.098;6.596;2023-08-01T02:03:39;4.95;;;2.80;;
52858;SDS011;38721;53.098;6.596;2023-08-01T02:06:05;6.05;;;2.88;;
52858;SDS011;38721;53.098;6.596;2023-08-01T02:08:31;5.15;;;2.85;;
52858;SDS011;38721;53.098;6.596;2023-08-01T02:11:00;5.30;;;2.85;;
52858;SDS011;38721;53.098;6.596;2023-08-01T02:13:26;9.98;;;3.33;;
52858;SDS011;38721;53.098;6.596;2023-08-01T02:15:52;6.82;;;3.20;;
52858;SDS011;38721;53.098;6.596;2023-08-01T02:18:19;6.57;;;3.00;;
52858;SDS011;38721;53.098;6.596;2023-08-01T02:20:44;7.82;;;3.58;;
52858;SDS011;38721;53.098;6.596;2023-08-01T02:23:10;9.02;;;3.13;;
52858;SDS011;38721;53.098;6.596;2023-08-01T02:25:39;6.50;;;2.88;;
52858;SDS011;38721;53.098;6.596;2023-08-01T02:28:05;7.35;;;3.30;;
52858;SDS011;38721;53.098;6.596;2023-08-01T02:30:31;8.10;;;3.22;;
52858;SDS011;38721;53.098;6.596;2023-08-01T02:32:57;5.53;;;2.90;;
52858;SDS011;38721;53.098;6.596;2023-08-01T02:35:23;6.68;;;2.65;;
52858;SDS011;38721;53.098;6.596;2023-08-01T02:37:48;5.40;;;2.88;;
52858;SDS011;38721;53.098;6.596;2023-08-01T02:40:14;6.55;;;3.03;;
52858;SDS011;38721;53.098;6.596;2023-08-01T02:42:40;8.88;;;3.35;;
52858;SDS011;38721;53.098;6.596;2023-08-01T02:45:05;9.98;;;3.50;;
52858;SDS011;38721;53.098;6.596;2023-08-01T02:47:31;8.48;;;2.88;;
52858;SDS011;38721;53.098;6.596;2023-08-01T02:49:57;8.75;;;3.38;;
52858;SDS011;38721;53.098;6.596;2023-08-01T02:52:23;8.73;;;3.55;;
52858;SDS011;38721;53.098;6.596;2023-08-01T02:54:48;7.72;;;3.45;;
52858;SDS011;38721;53.098;6.596;2023-08-01T02:57:14;9.10;;;3.15;;
52858;SDS011;38721;53.098;6.596;2023-08-01T02:59:40;10.50;;;3.53;;
52858;SDS011;38721;53.098;6.596;2023-08-01T03:02:06;7.28;;;3.20;;
52858;SDS011;38721;53.098;6.596;2023-08-01T03:04:31;9.73;;;3.90;;
52858;SDS011;38721;53.098;6.596;2023-08-01T03:06:57;9.77;;;3.53;;
52858;SDS011;38721;53.098;6.596;2023-08-01T03:09:23;13.50;;;4.20;;
52858;SDS011;38721;53.098;6.596;2023-08-01T03:11:48;10.52;;;4.72;;
52858;SDS011;38721;53.098;6.596;2023-08-01T03:14:14;8.57;;;4.00;;
52858;SDS011;38721;53.098;6.596;2023-08-01T03:16:39;10.82;;;4.05;;
52858;SDS011;38721;53.098;6.596;2023-08-01T03:19:05;9.02;;;3.95;;
52858;SDS011;38721;53.098;6.596;2023-08-01T03:21:31;12.88;;;4.90;;
52858;SDS011;38721;53.098;6.596;2023-08-01T03:23:58;8.60;;;3.67;;
52858;SDS011;38721;53.098;6.596;2023-08-01T03:26:23;9.75;;;4.30;;
52858;SDS011;38721;53.098;6.596;2023-08-01T03:28:49;9.70;;;4.28;;
52858;SDS011;38721;53.098;6.596;2023-08-01T03:31:15;9.43;;;4.07;;
52858;SDS011;38721;53.098;6.596;2023-08-01T03:33:40;9.90;;;4.28;;
52858;SDS011;38721;53.098;6.596;2023-08-01T03:36:06;11.63;;;4.70;;
52858;SDS011;38721;53.098;6.596;2023-08-01T03:38:32;9.40;;;4.28;;
52858;SDS011;38721;53.098;6.596;2023-08-01T03:40:58;14.60;;;4.72;;
52858;SDS011;38721;53.098;6.596;2023-08-01T03:43:23;10.07;;;4.70;;
52858;SDS011;38721;53.098;6.596;2023-08-01T03:45:49;8.60;;;4.53;;
52858;SDS011;38721;53.098;6.596;2023-08-01T03:48:16;10.77;;;4.85;;
52858;SDS011;38721;53.098;6.596;2023-08-01T03:50:41;12.90;;;4.50;;
52858;SDS011;38721;53.098;6.596;2023-08-01T03:53:07;12.75;;;4.07;;
52858;SDS011;38721;53.098;6.596;2023-08-01T03:55:33;12.05;;;4.05;;
52858;SDS011;38721;53.098;6.596;2023-08-01T03:57:58;8.70;;;3.80;;
52858;SDS011;38721;53.098;6.596;2023-08-01T04:00:24;6.40;;;3.60;;
52858;SDS011;38721;53.098;6.596;2023-08-01T04:02:50;10.75;;;3.53;;
52858;SDS011;38721;53.098;6.596;2023-08-01T04:05:15;9.77;;;3.72;;
52858;SDS011;38721;53.098;6.596;2023-08-01T04:07:47;8.75;;;3.63;;
52858;SDS011;38721;53.098;6.596;2023-08-01T04:10:16;6.47;;;3.58;;
52858;SDS011;38721;53.098;6.596;2023-08-01T04:12:41;7.75;;;3.33;;
52858;SDS011;38721;53.098;6.596;2023-08-01T04:15:08;6.70;;;3.10;;
52858;SDS011;38721;53.098;6.596;2023-08-01T04:17:34;10.18;;;3.50;;
52858;SDS011;38721;53.098;6.596;2023-08-01T04:20:00;8.63;;;3.03;;
52858;SDS011;38721;53.098;6.596;2023-08-01T04:22:25;7.07;;;2.83;;
52858;SDS011;38721;53.098;6.596;2023-08-01T04:24:51;7.03;;;2.80;;
52858;SDS011;38721;53.098;6.596;2023-08-01T04:27:16;9.77;;;3.00;;
52858;SDS011;38721;53.098;6.596;2023-08-01T04:29:42;5.28;;;2.60;;
52858;SDS011;38721;53.098;6.596;2023-08-01T04:32:08;6.22;;;2.50;;
52858;SDS011;38721;53.098;6.596;2023-08-01T04:34:33;4.30;;;2.30;;
52858;SDS011;38721;53.098;6.596;2023-08-01T04:36:59;5.75;;;2.70;;
52858;SDS011;38721;53.098;6.596;2023-08-01T04:39:25;6.30;;;2.40;;
52858;SDS011;38721;53.098;6.596;2023-08-01T04:41:50;5.82;;;2.38;;
52858;SDS011;38721;53.098;6.596;2023-08-01T04:44:16;4.90;;;2.10;;
52858;SDS011;38721;53.098;6.596;2023-08-01T04:46:42;4.80;;;2.10;;
52858;SDS011;38721;53.098;6.596;2023-08-01T04:49:07;5.75;;;1.90;;
52858;SDS011;38721;53.098;6.596;2023-08-01T04:51:33;3.40;;;2.00;;
52858;SDS011;38721;53.098;6.596;2023-08-01T04:53:58;4.75;;;2.05;;
52858;SDS011;38721;53.098;6.596;2023-08-01T04:56:24;9.25;;;2.00;;
52858;SDS011;38721;53.098;6.596;2023-08-01T04:58:50;8.63;;;2.00;;
52858;SDS011;38721;53.098;6.596;2023-08-01T05:01:15;4.47;;;1.90;;
52858;SDS011;38721;53.098;6.596;2023-08-01T05:03:41;6.57;;;2.28;;
52858;SDS011;38721;53.098;6.596;2023-08-01T05:06:07;5.03;;;2.08;;
52858;SDS011;38721;53.098;6.596;2023-08-01T05:08:35;3.28;;;1.65;;
52858;SDS011;38721;53.098;6.596;2023-08-01T05:11:01;2.60;;;1.52;;
52858;SDS011;38721;53.098;6.596;2023-08-01T05:13:26;4.22;;;1.70;;
52858;SDS011;38721;53.098;6.596;2023-08-01T05:15:52;3.50;;;1.75;;
52858;SDS011;38721;53.098;6.596;2023-08-01T05:18:17;4.72;;;2.08;;
52858;SDS011;38721;53.098;6.596;2023-08-01T05:20:43;3.35;;;1.60;;
52858;SDS011;38721;53.098;6.596;2023-08-01T05:23:09;3.10;;;1.38;;
52858;SDS011;38721;53.098;6.596;2023-08-01T05:25:34;2.85;;;1.30;;
52858;SDS011;38721;53.098;6.596;2023-08-01T05:28:00;3.30;;;1.50;;
52858;SDS011;38721;53.098;6.596;2023-08-01T05:30:26;5.47;;;1.90;;
52858;SDS011;38721;53.098;6.596;2023-08-01T05:32:52;3.28;;;1.30;;
52858;SDS011;38721;53.098;6.596;2023-08-01T05:35:18;2.42;;;1.55;;
52858;SDS011;38721;53.098;6.596;2023-08-01T05:37:44;3.28;;;1.30;;
52858;SDS011;38721;53.098;6.596;2023-08-01T05:40:10;6.05;;;1.80;;
52858;SDS011;38721;53.098;6.596;2023-08-01T05:42:36;3.53;;;1.60;;
52858;SDS011;38721;53.098;6.596;2023-08-01T05:45:02;3.38;;;1.60;;
52858;SDS011;38721;53.098;6.596;2023-08-01T05:47:31;5.68;;;1.52;;
52858;SDS011;38721;53.098;6.596;2023-08-01T05:49:57;3.25;;;1.42;;
52858;SDS011;38721;53.098;6.596;2023-08-01T05:52:22;3.67;;;1.67;;
52858;SDS011;38721;53.098;6.596;2023-08-01T05:54:49;2.85;;;1.23;;
52858;SDS011;38721;53.098;6.596;2023-08-01T05:57:14;2.40;;;1.30;;
52858;SDS011;38721;53.098;6.596;2023-08-01T05:59:40;3.33;;;1.60;;
52858;SDS011;38721;53.098;6.596;2023-08-01T06:02:06;2.72;;;1.35;;
52858;SDS011;38721;53.098;6.596;2023-08-01T06:04:32;2.35;;;1.70;;
52858;SDS011;38721;53.098;6.596;2023-08-01T06:06:57;2.17;;;1.30;;
52858;SDS011;38721;53.098;6.596;2023-08-01T06:09:24;3.33;;;1.40;;
52858;SDS011;38721;53.098;6.596;2023-08-01T06:11:50;2.47;;;1.58;;
52858;SDS011;38721;53.098;6.596;2023-08-01T06:14:16;4.28;;;1.52;;
52858;SDS011;38721;53.098;6.596;2023-08-01T06:16:42;3.85;;;1.67;;
52858;SDS011;38721;53.098;6.596;2023-08-01T06:19:07;3.58;;;1.50;;
52858;SDS011;38721;53.098;6.596;2023-08-01T06:21:33;3.28;;;1.42;;
52858;SDS011;38721;53.098;6.596;2023-08-01T06:23:59;5.07;;;1.63;;
52858;SDS011;38721;53.098;6.596;2023-08-01T06:26:24;2.60;;;1.40;;
52858;SDS011;38721;53.098;6.596;2023-08-01T06:28:53;2.92;;;1.60;;
52858;SDS011;38721;53.098;6.596;2023-08-01T06:31:22;4.03;;;1.70;;
52858;SDS011;38721;53.098;6.596;2023-08-01T06:33:47;1.83;;;1.40;;
52858;SDS011;38721;53.098;6.596;2023-08-01T06:36:14;5.43;;;2.00;;
52858;SDS011;38721;53.098;6.596;2023-08-01T06:38:42;3.85;;;1.75;;
52858;SDS011;38721;53.098;6.596;2023-08-01T06:41:07;4.43;;;1.80;;
52858;SDS011;38721;53.098;6.596;2023-08-01T06:43:33;3.53;;;1.70;;
52858;SDS011;38721;53.098;6.596;2023-08-01T06:45:58;4.85;;;1.95;;
52858;SDS011;38721;53.098;6.596;2023-08-01T06:48:24;2.17;;;1.60;;
52858;SDS011;38721;53.098;6.596;2023-08-01T06:50:50;5.18;;;2.25;;
52858;SDS011;38721;53.098;6.596;2023-08-01T06:53:16;3.92;;;1.95;;
52858;SDS011;38721;53.098;6.596;2023-08-01T06:55:41;4.28;;;1.80;;
52858;SDS011;38721;53.098;6.596;2023-08-01T06:58:07;3.67;;;1.70;;
52858;SDS011;38721;53.098;6.596;2023-08-01T07:00:36;4.55;;;2.20;;
52858;SDS011;38721;53.098;6.596;2023-08-01T07:03:02;5.65;;;2.05;;
52858;SDS011;38721;53.098;6.596;2023-08-01T07:05:28;4.57;;;1.90;;
52858;SDS011;38721;53.098;6.596;2023-08-01T07:07:54;4.07;;;1.85;;
52858;SDS011;38721;53.098;6.596;2023-08-01T07:10:20;4.97;;;1.92;;
52858;SDS011;38721;53.098;6.596;2023-08-01T07:12:45;3.17;;;1.65;;
52858;SDS011;38721;53.098;6.596;2023-08-01T07:15:11;4.07;;;1.73;;
52858;SDS011;38721;53.098;6.596;2023-08-01T07:17:37;3.80;;;1.58;;
52858;SDS011;38721;53.098;6.596;2023-08-01T07:20:05;5.40;;;1.80;;
52858;SDS011;38721;53.098;6.596;2023-08-01T07:22:37;3.22;;;1.38;;
52858;SDS011;38721;53.098;6.596;2023-08-01T07:25:03;4.18;;;1.50;;
52858;SDS011;38721;53.098;6.596;2023-08-01T07:27:29;4.00;;;1.52;;
52858;SDS011;38721;53.098;6.596;2023-08-01T07:29:55;3.70;;;1.40;;
52858;SDS011;38721;53.098;6.596;2023-08-01T07:32:20;5.00;;;1.40;;
52858;SDS011;38721;53.098;6.596;2023-08-01T07:34:48;5.10;;;1.60;;
52858;SDS011;38721;53.098;6.596;2023-08-01T07:37:14;3.78;;;1.60;;
52858;SDS011;38721;53.098;6.596;2023-08-01T07:39:39;3.15;;;1.45;;
52858;SDS011;38721;53.098;6.596;2023-08-01T07:42:05;7.90;;;1.80;;
52858;SDS011;38721;53.098;6.596;2023-08-01T07:44:31;3.67;;;1.63;;
52858;SDS011;38721;53.098;6.596;2023-08-01T07:46:57;3.47;;;1.10;;
52858;SDS011;38721;53.098;6.596;2023-08-01T07:49:23;2.67;;;1.20;;
52858;SDS011;38721;53.098;6.596;2023-08-01T07:51:48;2.45;;;1.40;;
52858;SDS011;38721;53.098;6.596;2023-08-01T07:54:14;5.55;;;1.73;;
52858;SDS011;38721;53.098;6.596;2023-08-01T07:56:39;5.55;;;1.42;;
52858;SDS011;38721;53.098;6.596;2023-08-01T07:59:05;3.83;;;1.20;;
52858;SDS011;38721;53.098;6.596;2023-08-01T08:01:31;2.53;;;1.17;;
52858;SDS011;38721;53.098;6.596;2023-08-01T08:03:57;2.78;;;0.98;;
52858;SDS011;38721;53.098;6.596;2023-08-01T08:06:22;2.08;;;1.30;;
52858;SDS011;38721;53.098;6.596;2023-08-01T08:08:49;4.65;;;1.25;;
52858;SDS011;38721;53.098;6.596;2023-08-01T08:11:15;4.38;;;1.23;;
52858;SDS011;38721;53.098;6.596;2023-08-01T08:13:41;2.72;;;1.27;;
52858;SDS011;38721;53.098;6.596;2023-08-01T08:16:07;2.95;;;1.10;;
52858;SDS011;38721;53.098;6.596;2023-08-01T08:18:33;4.38;;;1.48;;
52858;SDS011;38721;53.098;6.596;2023-08-01T08:20:58;3.20;;;1.20;;
52858;SDS011;38721;53.098;6.596;2023-08-01T08:23:24;4.05;;;1.40;;
52858;SDS011;38721;53.098;6.596;2023-08-01T08:25:50;4.57;;;1.15;;
52858;SDS011;38721;53.098;6.596;2023-08-01T08:28:16;3.78;;;1.20;;
52858;SDS011;38721;53.098;6.596;2023-08-01T08:30:54;3.08;;;1.27;;
52858;SDS011;38721;53.098;6.596;2023-08-01T08:33:20;2.55;;;1.05;;
52858;SDS011;38721;53.098;6.596;2023-08-01T08:35:46;3.30;;;1.20;;
52858;SDS011;38721;53.098;6.596;2023-08-01T08:38:12;3.53;;;1.05;;
52858;SDS011;38721;53.098;6.596;2023-08-01T08:40:40;2.75;;;0.85;;
52858;SDS011;38721;53.098;6.596;2023-08-01T08:43:08;5.28;;;1.20;;
52858;SDS011;38721;53.098;6.596;2023-08-01T08:45:36;2.75;;;1.30;;
52858;SDS011;38721;53.098;6.596;2023-08-01T08:48:09;3.10;;;1.48;;
52858;SDS011;38721;53.098;6.596;2023-08-01T08:50:37;3.25;;;1.40;;
52858;SDS011;38721;53.098;6.596;2023-08-01T08:53:05;3.20;;;1.40;;
52858;SDS011;38721;53.098;6.596;2023-08-01T08:55:37;2.60;;;1.35;;
52858;SDS011;38721;53.098;6.596;2023-08-01T08:58:06;3.88;;;1.30;;
52858;SDS011;38721;53.098;6.596;2023-08-01T09:00:35;2.67;;;1.42;;
52858;SDS011;38721;53.098;6.596;2023-08-01T09:03:01;2.78;;;1.45;;
52858;SDS011;38721;53.098;6.596;2023-08-01T09:05:27;3.03;;;1.40;;
52858;SDS011;38721;53.098;6.596;2023-08-01T09:07:56;3.55;;;1.20;;
52858;SDS011;38721;53.098;6.596;2023-08-01T09:10:23;3.92;;;1.50;;
52858;SDS011;38721;53.098;6.596;2023-08-01T09:12:52;3.38;;;1.48;;
52858;SDS011;38721;53.098;6.596;2023-08-01T09:15:17;5.25;;;1.67;;
52858;SDS011;38721;53.098;6.596;2023-08-01T09:17:48;4.72;;;1.50;;
52858;SDS011;38721;53.098;6.596;2023-08-01T09:20:14;3.58;;;1.50;;
52858;SDS011;38721;53.098;6.596;2023-08-01T09:22:44;3.10;;;1.38;;
52858;SDS011;38721;53.098;6.596;2023-08-01T09:25:10;2.13;;;1.35;;
52858;SDS011;38721;53.098;6.596;2023-08-01T09:27:36;2.58;;;1.20;;
52858;SDS011;38721;53.098;6.596;2023-08-01T09:30:20;2.75;;;1.40;;
52858;SDS011;38721;53.098;6.596;2023-08-01T09:32:55;3.50;;;1.27;;
52858;SDS011;38721;53.098;6.596;2023-08-01T09:35:21;2.55;;;1.13;;
52858;SDS011;38721;53.098;6.596;2023-08-01T09:37:47;2.63;;;1.23;;
52858;SDS011;38721;53.098;6.596;2023-08-01T09:40:13;4.40;;;1.40;;
52858;SDS011;38721;53.098;6.596;2023-08-01T09:42:40;3.80;;;1.38;;
52858;SDS011;38721;53.098;6.596;2023-08-01T09:45:11;2.55;;;1.42;;
52858;SDS011;38721;53.098;6.596;2023-08-01T09:47:38;1.60;;;1.35;;
52858;SDS011;38721;53.098;6.596;2023-08-01T09:50:04;4.22;;;1.30;;
52858;SDS011;38721;53.098;6.596;2023-08-01T09:52:30;2.33;;;1.15;;
52858;SDS011;38721;53.098;6.596;2023-08-01T09:54:56;3.25;;;1.30;;
52858;SDS011;38721;53.098;6.596;2023-08-01T09:57:21;1.35;;;1.00;;
52858;SDS011;38721;53.098;6.596;2023-08-01T09:59:47;4.00;;;1.27;;
52858;SDS011;38721;53.098;6.596;2023-08-01T10:02:15;3.80;;;1.17;;
52858;SDS011;38721;53.098;6.596;2023-08-01T10:04:43;3.70;;;1.10;;
52858;SDS011;38721;53.098;6.596;2023-08-01T10:07:11;2.72;;;1.10;;
52858;SDS011;38721;53.098;6.596;2023-08-01T10:09:38;1.90;;;1.00;;
52858;SDS011;38721;53.098;6.596;2023-08-01T10:12:06;4.35;;;1.50;;
52858;SDS011;38721;53.098;6.596;2023-08-01T10:14:32;4.90;;;1.42;;
52858;SDS011;38721;53.098;6.596;2023-08-01T10:16:59;2.58;;;1.20;;
52858;SDS011;38721;53.098;6.596;2023-08-01T10:19:25;3.72;;;1.50;;
52858;SDS011;38721;53.098;6.596;2023-08-01T10:21:52;3.65;;;1.60;;
52858;SDS011;38721;53.098;6.596;2023-08-01T10:24:19;5.63;;;1.63;;
52858;SDS011;38721;53.098;6.596;2023-08-01T10:26:45;4.07;;;1.40;;
52858;SDS011;38721;53.098;6.596;2023-08-01T10:29:11;2.92;;;1.58;;
52858;SDS011;38721;53.098;6.596;2023-08-01T10:31:37;5.72;;;1.52;;
52858;SDS011;38721;53.098;6.596;2023-08-01T10:34:04;4.50;;;1.80;;
52858;SDS011;38721;53.098;6.596;2023-08-01T10:36:31;4.43;;;1.80;;
52858;SDS011;38721;53.098;6.596;2023-08-01T10:38:58;4.57;;;1.73;;
52858;SDS011;38721;53.098;6.596;2023-08-01T10:41:33;4.40;;;2.15;;
52858;SDS011;38721;53.098;6.596;2023-08-01T10:44:10;7.82;;;2.40;;
52858;SDS011;38721;53.098;6.596;2023-08-01T10:54:24;5.15;;;1.98;;
52858;SDS011;38721;53.098;6.596;2023-08-01T10:56:51;5.20;;;1.80;;
52858;SDS011;38721;53.098;6.596;2023-08-01T10:59:19;2.92;;;1.42;;
52858;SDS011;38721;53.098;6.596;2023-08-01T11:01:53;6.25;;;1.95;;
52858;SDS011;38721;53.098;6.596;2023-08-01T11:04:23;2.65;;;1.30;;
52858;SDS011;38721;53.098;6.596;2023-08-01T11:06:49;3.63;;;1.85;;
52858;SDS011;38721;53.098;6.596;2023-08-01T11:09:21;1.83;;;1.23;;
52858;SDS011;38721;53.098;6.596;2023-08-01T11:11:52;4.00;;;1.50;;
52858;SDS011;38721;53.098;6.596;2023-08-01T11:14:22;3.25;;;1.52;;
52858;SDS011;38721;53.098;6.596;2023-08-01T11:16:50;5.35;;;1.77;;
52858;SDS011;38721;53.098;6.596;2023-08-01T11:21:48;6.55;;;1.90;;
52858;SDS011;38721;53.098;6.596;2023-08-01T11:24:15;4.55;;;1.40;;
52858;SDS011;38721;53.098;6.596;2023-08-01T11:26:42;3.40;;;1.48;;
52858;SDS011;38721;53.098;6.596;2023-08-01T11:29:12;4.43;;;1.15;;
52858;SDS011;38721;53.098;6.596;2023-08-01T11:31:38;4.55;;;1.98;;
52858;SDS011;38721;53.098;6.596;2023-08-01T11:34:06;4.30;;;1.40;;
52858;SDS011;38721;53.098;6.596;2023-08-01T11:36:37;5.07;;;1.27;;
52858;SDS011;38721;53.098;6.596;2023-08-01T11:39:04;8.40;;;1.60;;
52858;SDS011;38721;53.098;6.596;2023-08-01T11:41:29;5.00;;;1.30;;
52858;SDS011;38721;53.098;6.596;2023-08-01T11:44:00;5.55;;;1.40;;
52858;SDS011;38721;53.098;6.596;2023-08-01T11:46:31;4.65;;;1.10;;
52858;SDS011;38721;53.098;6.596;2023-08-01T11:48:58;4.00;;;1.13;;
52858;SDS011;38721;53.098;6.596;2023-08-01T11:51:24;4.78;;;1.15;;
52858;SDS011;38721;53.098;6.596;2023-08-01T11:54:00;5.07;;;1.02;;
52858;SDS011;38721;53.098;6.596;2023-08-01T11:56:26;1.95;;;0.90;;
52858;SDS011;38721;53.098;6.596;2023-08-01T11:58:52;3.40;;;0.90;;
52858;SDS011;38721;53.098;6.596;2023-08-01T12:01:18;3.70;;;1.10;;
52858;SDS011;38721;53.098;6.596;2023-08-01T12:06:14;3.58;;;1.08;;
52858;SDS011;38721;53.098;6.596;2023-08-01T12:08:44;4.10;;;1.23;;
52858;SDS011;38721;53.098;6.596;2023-08-01T12:13:45;7.35;;;1.55;;
52858;SDS011;38721;53.098;6.596;2023-08-01T12:16:33;5.93;;;2.03;;
52858;SDS011;38721;53.098;6.596;2023-08-01T12:18:59;5.80;;;1.70;;
52858;SDS011;38721;53.098;6.596;2023-08-01T12:21:24;3.47;;;1.50;;
52858;SDS011;38721;53.098;6.596;2023-08-01T12:23:50;5.13;;;1.52;;
52858;SDS011;38721;53.098;6.596;2023-08-01T12:26:15;2.97;;;1.60;;
52858;SDS011;38721;53.098;6.596;2023-08-01T12:28:41;3.97;;;1.40;;
52858;SDS011;38721;53.098;6.596;2023-08-01T12:31:07;3.92;;;1.33;;
52858;SDS011;38721;53.098;6.596;2023-08-01T12:33:32;4.13;;;1.10;;
52858;SDS011;38721;53.098;6.596;2023-08-01T12:35:59;3.30;;;1.20;;
52858;SDS011;38721;53.098;6.596;2023-08-01T12:38:25;6.53;;;1.50;;
52858;SDS011;38721;53.098;6.596;2023-08-01T12:40:51;7.22;;;2.38;;
52858;SDS011;38721;53.098;6.596;2023-08-01T12:43:17;2.80;;;1.20;;
52858;SDS011;38721;53.098;6.596;2023-08-01T12:45:43;4.80;;;1.35;;
52858;SDS011;38721;53.098;6.596;2023-08-01T12:48:09;3.67;;;1.20;;
52858;SDS011;38721;53.098;6.596;2023-08-01T12:50:34;5.57;;;1.88;;
52858;SDS011;38721;53.098;6.596;2023-08-01T12:53:00;2.90;;;1.40;;
52858;SDS011;38721;53.098;6.596;2023-08-01T12:55:26;4.43;;;1.83;;
52858;SDS011;38721;53.098;6.596;2023-08-01T12:57:51;3.55;;;1.10;;
52858;SDS011;38721;53.098;6.596;2023-08-01T13:00:17;2.67;;;1.50;;
52858;SDS011;38721;53.098;6.596;2023-08-01T13:02:45;4.38;;;1.42;;
52858;SDS011;38721;53.098;6.596;2023-08-01T13:05:12;8.23;;;1.55;;
52858;SDS011;38721;53.098;6.596;2023-08-01T13:07:38;3.55;;;1.30;;
52858;SDS011;38721;53.098;6.596;2023-08-01T13:10:03;5.82;;;1.83;;
52858;SDS011;38721;53.098;6.596;2023-08-01T13:12:29;3.25;;;1.50;;
52858;SDS011;38721;53.098;6.596;2023-08-01T13:14:55;4.25;;;1.40;;
52858;SDS011;38721;53.098;6.596;2023-08-01T13:17:20;2.63;;;1.40;;
52858;SDS011;38721;53.098;6.596;2023-08-01T13:19:46;2.50;;;1.25;;
52858;SDS011;38721;53.098;6.596;2023-08-01T13:22:12;4.43;;;1.67;;
52858;SDS011;38721;53.098;6.596;2023-08-01T13:24:37;6.38;;;1.60;;
52858;SDS011;38721;53.098;6.596;2023-08-01T13:27:04;5.82;;;1.67;;
52858;SDS011;38721;53.098;6.596;2023-08-01T13:29:30;8.18;;;2.08;;
52858;SDS011;38721;53.098;6.596;2023-08-01T13:31:55;4.95;;;1.70;;
52858;SDS011;38721;53.098;6.596;2023-08-01T13:34:21;4.15;;;1.85;;
52858;SDS011;38721;53.098;6.596;2023-08-01T13:36:47;7.70;;;1.52;;
52858;SDS011;38721;53.098;6.596;2023-08-01T13:39:12;4.03;;;1.40;;
52858;SDS011;38721;53.098;6.596;2023-08-01T13:41:38;3.05;;;1.67;;
52858;SDS011;38721;53.098;6.596;2023-08-01T13:44:04;4.18;;;1.00;;
52858;SDS011;38721;53.098;6.596;2023-08-01T13:46:29;3.65;;;1.40;;
52858;SDS011;38721;53.098;6.596;2023-08-01T13:48:55;2.38;;;1.10;;
52858;SDS011;38721;53.098;6.596;2023-08-01T13:51:21;3.67;;;1.40;;
52858;SDS011;38721;53.098;6.596;2023-08-01T13:53:47;3.70;;;1.20;;
52858;SDS011;38721;53.098;6.596;2023-08-01T13:56:12;4.43;;;1.30;;
52858;SDS011;38721;53.098;6.596;2023-08-01T13:58:38;2.83;;;1.30;;
52858;SDS011;38721;53.098;6.596;2023-08-01T14:01:05;3.78;;;1.45;;
52858;SDS011;38721;53.098;6.596;2023-08-01T14:03:33;2.72;;;1.10;;
52858;SDS011;38721;53.098;6.596;2023-08-01T14:06:05;3.88;;;1.08;;
52858;SDS011;38721;53.098;6.596;2023-08-01T14:08:31;3.60;;;1.23;;
52858;SDS011;38721;53.098;6.596;2023-08-01T14:10:57;2.58;;;1.27;;
52858;SDS011;38721;53.098;6.596;2023-08-01T14:13:23;4.68;;;1.55;;
52858;SDS011;38721;53.098;6.596;2023-08-01T14:15:49;3.28;;;1.20;;
52858;SDS011;38721;53.098;6.596;2023-08-01T14:18:15;4.65;;;0.90;;
52858;SDS011;38721;53.098;6.596;2023-08-01T14:20:40;2.97;;;1.30;;
52858;SDS011;38721;53.098;6.596;2023-08-01T14:23:06;1.10;;;0.95;;
52858;SDS011;38721;53.098;6.596;2023-08-01T14:25:32;1.42;;;1.15;;
52858;SDS011;38721;53.098;6.596;2023-08-01T14:27:58;2.75;;;0.80;;
52858;SDS011;38721;53.098;6.596;2023-08-01T14:30:23;2.90;;;0.95;;
52858;SDS011;38721;53.098;6.596;2023-08-01T14:32:49;3.13;;;1.13;;
52858;SDS011;38721;53.098;6.596;2023-08-01T14:35:24;3.88;;;1.25;;
52858;SDS011;38721;53.098;6.596;2023-08-01T14:37:49;2.58;;;0.80;;
52858;SDS011;38721;53.098;6.596;2023-08-01T14:40:15;6.68;;;1.58;;
52858;SDS011;38721;53.098;6.596;2023-08-01T14:42:41;4.38;;;1.20;;
52858;SDS011;38721;53.098;6.596;2023-08-01T14:45:06;3.53;;;1.10;;
52858;SDS011;38721;53.098;6.596;2023-08-01T14:47:32;3.33;;;1.17;;
52858;SDS011;38721;53.098;6.596;2023-08-01T14:49:59;7.80;;;1.33;;
52858;SDS011;38721;53.098;6.596;2023-08-01T14:52:25;4.45;;;1.40;;
52858;SDS011;38721;53.098;6.596;2023-08-01T14:54:50;2.00;;;1.20;;
52858;SDS011;38721;53.098;6.596;2023-08-01T14:57:16;1.58;;;1.20;;
52858;SDS011;38721;53.098;6.596;2023-08-01T14:59:42;4.25;;;1.13;;